Time;durP1;ratioP1;P1;durP2;ratioP2;P2;SDS_P1;SDS_P2;PMS_P1;PMS_P2;Temp;Humidity;BMP_temperature;BMP_pressure;BME280_temperature;BME280_humidity;BME280_pressure;Samples;Min_cycle;Max_cycle;Signal;HPM_P1;HPM_P2
2023/08/13 00:01:44;;;;;;;4.03;1.45;;;15.70;99.90;;;;;;4913844;28;20035;-95
2023/08/13 00:04:10;;;;;;;7.10;2.47;;;15.70;99.90;;;;;;4913942;28;20024;-95
2023/08/13 00:06:35;;;;;;;3.58;1.35;;;15.70;99.90;;;;;;4913348;28;20120;-94
2023/08/13 00:09:02;;;;;;;2.65;1.33;;;15.70;99.90;;;;;;4913331;28;20132;-95
2023/08/13 00:11:27;;;;;;;5.28;1.40;;;15.70;99.90;;;;;;4898528;29;20036;-94
2023/08/13 00:13:53;;;;;;;5.40;1.30;;;15.60;99.90;;;;;;4913348;28;20396;-96
2023/08/13 00:16:19;;;;;;;6.05;1.58;;;15.60;99.90;;;;;;4903216;28;20515;-96
2023/08/13 00:18:45;;;;;;;9.95;1.50;;;15.60;99.90;;;;;;4917890;28;20039;-95
2023/08/13 00:21:11;;;;;;;3.95;1.55;;;15.60;99.90;;;;;;4923478;28;20120;-95
2023/08/13 00:23:37;;;;;;;4.03;1.40;;;15.50;99.90;;;;;;4920533;28;20127;-96
2023/08/13 00:26:03;;;;;;;4.05;1.38;;;15.50;99.90;;;;;;4915532;28;20040;-95
2023/08/13 00:28:29;;;;;;;2.33;1.30;;;15.50;99.90;;;;;;4913574;28;20052;-96
2023/08/13 00:30:54;;;;;;;3.45;1.35;;;15.50;99.90;;;;;;4914514;28;20025;-96
2023/08/13 00:33:20;;;;;;;3.67;1.25;;;15.50;99.90;;;;;;4915917;28;20032;-96
2023/08/13 00:35:46;;;;;;;3.60;1.98;;;15.50;99.90;;;;;;4916938;28;20102;-96
2023/08/13 00:38:12;;;;;;;4.03;1.30;;;15.50;99.90;;;;;;4914626;28;20057;-94
2023/08/13 00:40:37;;;;;;;18.92;1.92;;;15.50;99.90;;;;;;4915935;28;20035;-96
2023/08/13 00:43:03;;;;;;;7.93;2.05;;;15.40;99.90;;;;;;4913836;28;20062;-96
2023/08/13 00:45:32;;;;;;;3.05;1.70;;;15.40;99.90;;;;;;4898460;29;20120;-96
2023/08/13 00:47:59;;;;;;;4.72;1.50;;;15.40;99.90;;;;;;4915185;28;20032;-96
2023/08/13 00:50:26;;;;;;;3.25;1.38;;;15.40;99.90;;;;;;4899939;29;20063;-96
2023/08/13 00:52:51;;;;;;;8.15;1.55;;;15.40;99.90;;;;;;4913669;28;20032;-96
2023/08/13 00:55:17;;;;;;;5.75;1.60;;;15.40;99.90;;;;;;4914361;28;20032;-96
2023/08/13 00:57:43;;;;;;;3.88;1.50;;;15.30;99.90;;;;;;4913263;28;20498;-95
2023/08/13 01:00:10;;;;;;;5.90;1.75;;;15.30;99.90;;;;;;4915361;28;20036;-94
2023/08/13 01:02:37;;;;;;;5.40;1.60;;;15.30;99.90;;;;;;4930961;28;20043;-95
2023/08/13 01:05:05;;;;;;;6.28;2.03;;;15.30;99.90;;;;;;4913167;28;20047;-96
2023/08/13 01:07:49;;;;;;;3.42;1.65;;;15.30;99.90;;;;;;4912649;28;20037;-95
2023/08/13 01:10:34;;;;;;;6.45;1.65;;;15.30;99.90;;;;;;4912760;28;20028;-94
2023/08/13 01:13:27;;;;;;;10.40;1.52;;;15.30;99.90;;;;;;4912921;28;20476;-92
2023/08/13 01:15:56;;;;;;;5.88;2.03;;;15.20;99.90;;;;;;4912109;28;20044;-95
2023/08/13 01:18:22;;;;;;;4.53;2.05;;;15.20;99.90;;;;;;4897577;28;20024;-94
2023/08/13 01:20:48;;;;;;;9.65;2.05;;;15.20;99.90;;;;;;4911890;28;20039;-94
2023/08/13 01:23:13;;;;;;;5.90;1.52;;;15.20;99.90;;;;;;4912150;28;20028;-94
2023/08/13 01:25:44;;;;;;;8.18;2.00;;;15.20;99.90;;;;;;4911975;28;20112;-95
2023/08/13 01:28:28;;;;;;;8.65;1.58;;;15.20;99.90;;;;;;4912065;28;20052;-94
2023/08/13 01:31:14;;;;;;;5.03;1.40;;;15.20;99.90;;;;;;4912317;28;20043;-95
2023/08/13 01:33:42;;;;;;;7.97;1.30;;;15.10;99.90;;;;;;4908404;28;20026;-93
2023/08/13 01:36:09;;;;;;;3.78;1.55;;;15.20;99.90;;;;;;4915032;28;20036;-95
2023/08/13 01:38:36;;;;;;;6.95;1.50;;;15.20;99.90;;;;;;4912750;28;20039;-95
2023/08/13 01:41:02;;;;;;;7.57;1.42;;;15.10;99.90;;;;;;4915445;28;20028;-94
2023/08/13 01:43:28;;;;;;;4.20;1.35;;;15.10;99.90;;;;;;4916692;28;20103;-96
2023/08/13 01:45:54;;;;;;;7.00;1.52;;;15.10;99.90;;;;;;4917150;28;20025;-94
2023/08/13 01:48:20;;;;;;;8.13;1.92;;;15.10;99.90;;;;;;4917528;28;20029;-95
2023/08/13 01:50:46;;;;;;;7.47;2.22;;;15.10;99.90;;;;;;4918100;28;20036;-93
2023/08/13 01:53:11;;;;;;;3.58;1.35;;;15.10;99.90;;;;;;4920134;28;20065;-92
2023/08/13 01:55:37;;;;;;;7.00;1.60;;;15.00;99.90;;;;;;4918947;28;20468;-95
2023/08/13 01:58:03;;;;;;;4.68;1.27;;;15.00;99.90;;;;;;4915597;28;20024;-94
2023/08/13 02:00:29;;;;;;;10.15;1.60;;;15.00;99.90;;;;;;4914884;28;20028;-94
2023/08/13 02:02:55;;;;;;;7.15;1.92;;;15.00;99.90;;;;;;4913234;28;20127;-93
2023/08/13 02:05:21;;;;;;;5.68;1.77;;;15.00;99.90;;;;;;4912896;28;20029;-94
2023/08/13 02:07:47;;;;;;;4.88;1.70;;;14.90;99.90;;;;;;4912336;28;20037;-94
2023/08/13 02:10:12;;;;;;;7.97;1.60;;;14.90;99.90;;;;;;4898206;28;20024;-95
2023/08/13 02:12:39;;;;;;;11.32;1.80;;;14.90;99.90;;;;;;4911734;28;20052;-95
2023/08/13 02:15:05;;;;;;;5.63;1.40;;;14.90;99.90;;;;;;4913045;28;20029;-94
2023/08/13 02:17:31;;;;;;;8.43;1.83;;;14.90;99.90;;;;;;4911964;28;20040;-95
2023/08/13 02:19:56;;;;;;;6.50;1.80;;;14.80;99.90;;;;;;4911893;28;20116;-94
2023/08/13 02:22:22;;;;;;;4.97;1.92;;;14.80;99.90;;;;;;4897766;28;20040;-94
2023/08/13 02:24:48;;;;;;;6.43;2.28;;;14.80;99.90;;;;;;4915633;28;20032;-93
2023/08/13 02:27:13;;;;;;;5.82;1.48;;;14.70;99.90;;;;;;4919441;28;20044;-93
2023/08/13 02:29:39;;;;;;;6.53;1.40;;;14.70;99.90;;;;;;4921638;28;20032;-93
2023/08/13 02:32:05;;;;;;;9.30;2.03;;;14.70;99.90;;;;;;4911383;28;20043;-95
2023/08/13 02:34:42;;;;;;;10.15;1.70;;;14.70;99.90;;;;;;4911555;28;20032;-95
2023/08/13 02:37:08;;;;;;;7.63;3.08;;;14.70;99.90;;;;;;4911227;28;20032;-93
2023/08/13 02:39:33;;;;;;;8.25;1.55;;;14.60;99.90;;;;;;4911092;28;20388;-92
2023/08/13 02:41:59;;;;;;;14.25;1.77;;;14.60;99.90;;;;;;4910665;28;20122;-95
2023/08/13 02:44:26;;;;;;;6.78;1.55;;;14.60;99.90;;;;;;4911111;28;20134;-94
2023/08/13 02:46:52;;;;;;;8.27;1.90;;;14.60;99.90;;;;;;4910865;28;20116;-94
2023/08/13 02:49:18;;;;;;;8.32;1.58;;;14.60;99.90;;;;;;4911381;28;20024;-94
2023/08/13 02:51:43;;;;;;;10.60;2.00;;;14.50;99.90;;;;;;4911115;28;20091;-94
2023/08/13 02:54:09;;;;;;;7.80;1.67;;;14.50;99.90;;;;;;4911400;28;20056;-95
2023/08/13 02:56:35;;;;;;;10.80;1.60;;;14.50;99.90;;;;;;4910607;28;20059;-94
2023/08/13 02:59:00;;;;;;;9.05;1.50;;;14.50;99.90;;;;;;4910910;28;20028;-94
2023/08/13 03:01:26;;;;;;;9.88;2.03;;;14.50;99.90;;;;;;4910901;28;20484;-95
2023/08/13 03:03:52;;;;;;;6.63;1.67;;;14.50;99.90;;;;;;4910749;28;20106;-94
2023/08/13 03:06:22;;;;;;;7.78;1.70;;;14.50;99.90;;;;;;4911089;28;20067;-92
2023/08/13 03:08:48;;;;;;;5.05;1.25;;;14.50;99.90;;;;;;4911311;28;20025;-95
2023/08/13 03:11:14;;;;;;;12.70;1.80;;;14.50;99.90;;;;;;4910940;28;20032;-94
2023/08/13 03:13:39;;;;;;;9.52;1.98;;;14.40;99.90;;;;;;4910413;28;20037;-96
2023/08/13 03:16:05;;;;;;;7.82;1.80;;;14.50;99.90;;;;;;4910465;28;20037;-94
2023/08/13 03:18:31;;;;;;;7.35;1.70;;;14.40;99.90;;;;;;4910421;28;20024;-95
2023/08/13 03:20:56;;;;;;;4.80;1.48;;;14.50;99.90;;;;;;4910990;28;20120;-95
2023/08/13 03:23:22;;;;;;;8.98;1.92;;;14.40;99.90;;;;;;4911407;28;20095;-94
2023/08/13 03:25:48;;;;;;;5.97;1.75;;;14.40;99.90;;;;;;4914106;28;20514;-94
2023/08/13 03:28:13;;;;;;;10.40;1.92;;;14.40;99.90;;;;;;4914174;28;20049;-95
2023/08/13 03:30:39;;;;;;;6.05;1.92;;;14.40;99.90;;;;;;4913845;28;20148;-95
2023/08/13 03:33:05;;;;;;;14.80;2.00;;;14.50;99.90;;;;;;4913959;28;20037;-95
2023/08/13 03:35:34;;;;;;;4.70;1.65;;;14.50;99.90;;;;;;4926215;28;20027;-95
2023/08/13 03:38:00;;;;;;;8.23;2.08;;;14.50;99.90;;;;;;4919263;28;20107;-95
2023/08/13 03:40:26;;;;;;;8.57;2.20;;;14.50;99.90;;;;;;4914220;28;20444;-95
2023/08/13 03:42:51;;;;;;;11.32;1.92;;;14.50;99.90;;;;;;4913981;28;20128;-95
2023/08/13 03:45:17;;;;;;;9.38;1.70;;;14.50;99.90;;;;;;4913811;28;20051;-95
2023/08/13 03:47:43;;;;;;;6.57;1.67;;;14.50;99.90;;;;;;4916091;28;20036;-93
2023/08/13 03:50:08;;;;;;;10.57;1.65;;;14.50;99.90;;;;;;4918820;28;20032;-93
2023/08/13 03:52:34;;;;;;;9.75;2.33;;;14.50;99.90;;;;;;4921370;28;20060;-94
2023/08/13 03:55:00;;;;;;;8.60;1.65;;;14.40;99.90;;;;;;4920132;28;20029;-93
2023/08/13 03:57:25;;;;;;;8.60;1.83;;;14.40;99.90;;;;;;4917739;28;20108;-94
2023/08/13 03:59:51;;;;;;;7.88;1.83;;;14.40;99.90;;;;;;4913787;28;20495;-94
2023/08/13 04:02:17;;;;;;;4.78;1.90;;;14.40;99.90;;;;;;4913405;28;20040;-94
2023/08/13 04:04:42;;;;;;;8.27;1.55;;;14.40;99.90;;;;;;4913474;28;20033;-93
2023/08/13 04:07:08;;;;;;;5.28;1.60;;;14.50;99.90;;;;;;4913271;28;20480;-94
2023/08/13 04:09:34;;;;;;;6.85;1.80;;;14.50;99.90;;;;;;4913342;28;20392;-95
2023/08/13 04:11:59;;;;;;;7.30;1.55;;;14.50;99.90;;;;;;4912860;28;20033;-94
2023/08/13 04:14:25;;;;;;;12.27;1.75;;;14.50;99.90;;;;;;4913344;28;20037;-95
2023/08/13 04:16:50;;;;;;;9.68;1.77;;;14.50;99.90;;;;;;4913576;28;20024;-94
2023/08/13 04:19:16;;;;;;;10.70;1.73;;;14.50;99.90;;;;;;4913619;28;20029;-94
2023/08/13 04:21:42;;;;;;;4.38;1.50;;;14.50;99.90;;;;;;4913139;28;20459;-96
2023/08/13 04:24:07;;;;;;;7.03;1.63;;;14.50;99.90;;;;;;4913378;28;20032;-94
2023/08/13 04:26:33;;;;;;;8.93;1.70;;;14.50;99.90;;;;;;4912975;28;20068;-95
2023/08/13 04:28:59;;;;;;;7.40;1.65;;;14.50;99.90;;;;;;4912706;28;20044;-95
2023/08/13 04:31:24;;;;;;;9.48;2.65;;;14.50;99.90;;;;;;4898572;28;20029;-94
2023/08/13 04:33:50;;;;;;;5.15;2.00;;;14.50;99.90;;;;;;4912619;28;20024;-94
2023/08/13 04:36:15;;;;;;;8.30;1.80;;;14.50;99.90;;;;;;4913165;28;20436;-94
2023/08/13 04:38:41;;;;;;;5.25;1.10;;;14.50;99.90;;;;;;4898455;28;20033;-94
2023/08/13 04:41:07;;;;;;;5.65;1.30;;;14.50;99.90;;;;;;4917911;28;20029;-92
2023/08/13 04:43:32;;;;;;;5.07;1.48;;;14.50;99.90;;;;;;4915351;28;20040;-92
2023/08/13 04:45:58;;;;;;;5.35;1.48;;;14.50;99.90;;;;;;4930301;28;20036;-94
2023/08/13 04:48:59;;;;;;;9.48;1.38;;;14.50;99.90;;;;;;4928330;28;20104;-93
2023/08/13 04:51:25;;;;;;;7.95;1.73;;;14.50;99.90;;;;;;4941923;29;20031;-95
2023/08/13 04:53:51;;;;;;;4.85;1.40;;;14.50;99.90;;;;;;4939666;29;20031;-94
2023/08/13 04:56:17;;;;;;;6.93;2.00;;;14.50;99.90;;;;;;4939405;29;20028;-94
2023/08/13 04:58:43;;;;;;;6.50;1.75;;;14.50;99.90;;;;;;4937755;29;20039;-93
2023/08/13 05:01:08;;;;;;;9.00;1.70;;;14.50;99.90;;;;;;4937810;29;20035;-94
2023/08/13 05:03:34;;;;;;;7.47;1.63;;;14.40;99.90;;;;;;4937927;29;20032;-94
2023/08/13 05:06:00;;;;;;;9.48;2.05;;;14.40;99.90;;;;;;4937979;29;20155;-93
2023/08/13 05:08:25;;;;;;;9.60;1.90;;;14.40;99.90;;;;;;4937483;29;20034;-94
2023/08/13 05:10:51;;;;;;;7.30;1.90;;;14.40;99.90;;;;;;4937039;29;20035;-93
2023/08/13 05:13:17;;;;;;;6.18;1.60;;;14.40;99.90;;;;;;4921222;29;20104;-95
2023/08/13 05:15:43;;;;;;;12.38;2.55;;;14.40;99.90;;;;;;4936902;29;20030;-94
2023/08/13 05:18:08;;;;;;;3.17;1.30;;;14.40;99.90;;;;;;4938015;29;20084;-95
2023/08/13 05:20:34;;;;;;;11.38;2.40;;;14.40;99.90;;;;;;4948011;29;20028;-91
2023/08/13 05:22:59;;;;;;;8.65;2.08;;;14.40;99.90;;;;;;4944196;29;20059;-95
2023/08/13 05:25:26;;;;;;;4.05;1.55;;;14.40;99.90;;;;;;4923088;29;20039;-95
2023/08/13 05:27:52;;;;;;;8.23;2.20;;;14.40;99.90;;;;;;4912568;28;20056;-94
2023/08/13 05:30:18;;;;;;;9.20;1.95;;;14.50;99.90;;;;;;4897874;29;20028;-92
2023/08/13 05:32:44;;;;;;;5.47;1.77;;;14.40;99.90;;;;;;4912508;28;20140;-94
2023/08/13 05:35:10;;;;;;;5.32;1.60;;;14.50;99.90;;;;;;4913630;28;20032;-95
2023/08/13 05:37:35;;;;;;;11.50;2.45;;;14.50;99.90;;;;;;4919108;28;20029;-93
2023/08/13 05:40:01;;;;;;;5.10;1.88;;;14.50;99.90;;;;;;4923459;28;20032;-94
2023/08/13 05:42:26;;;;;;;8.07;1.75;;;14.50;99.90;;;;;;4915676;28;20047;-94
2023/08/13 05:44:52;;;;;;;9.18;2.10;;;14.50;99.90;;;;;;4913806;28;20035;-94
2023/08/13 05:47:18;;;;;;;5.18;1.70;;;14.40;99.90;;;;;;4918101;28;20036;-94
2023/08/13 05:49:43;;;;;;;10.40;1.45;;;14.50;99.90;;;;;;4913523;28;20111;-95
2023/08/13 05:52:09;;;;;;;6.07;1.67;;;14.40;99.90;;;;;;4914871;28;20024;-94
2023/08/13 05:54:34;;;;;;;9.10;1.77;;;14.40;99.90;;;;;;4913860;28;20029;-94
2023/08/13 05:57:00;;;;;;;6.50;1.92;;;14.40;99.90;;;;;;4912516;28;20033;-95
2023/08/13 05:59:27;;;;;;;10.63;1.85;;;14.40;99.90;;;;;;4913194;28;20118;-94
2023/08/13 06:01:53;;;;;;;10.48;1.90;;;14.40;99.90;;;;;;4915604;28;20037;-94
2023/08/13 06:04:18;;;;;;;4.50;1.50;;;14.50;99.90;;;;;;4912364;28;20040;-94
2023/08/13 06:06:44;;;;;;;9.13;2.72;;;14.50;99.90;;;;;;4912331;28;20025;-94
2023/08/13 06:09:10;;;;;;;5.85;1.90;;;14.50;99.90;;;;;;4912178;28;20060;-93
2023/08/13 06:11:35;;;;;;;10.15;1.90;;;14.50;99.90;;;;;;4914541;28;20650;-95
2023/08/13 06:14:01;;;;;;;9.00;2.17;;;14.50;99.90;;;;;;4912787;28;20035;-94
2023/08/13 06:16:27;;;;;;;8.63;1.67;;;14.60;99.90;;;;;;4912062;28;20060;-93
2023/08/13 06:18:53;;;;;;;13.73;2.10;;;14.60;99.90;;;;;;4912122;28;20024;-94
2023/08/13 06:21:19;;;;;;;7.57;2.45;;;14.60;99.90;;;;;;4912300;28;20037;-94
2023/08/13 06:23:45;;;;;;;7.88;1.67;;;14.70;99.90;;;;;;4917764;28;20048;-94
2023/08/13 06:26:10;;;;;;;8.70;1.85;;;14.60;99.90;;;;;;4919681;28;20035;-93
2023/08/13 06:28:37;;;;;;;9.05;1.70;;;14.70;99.90;;;;;;4905651;28;20063;-94
2023/08/13 06:31:04;;;;;;;9.43;1.90;;;14.70;99.90;;;;;;4922223;28;20100;-93
2023/08/13 06:33:29;;;;;;;7.60;1.80;;;14.80;99.90;;;;;;4918226;28;20044;-92
2023/08/13 06:35:55;;;;;;;7.50;1.75;;;14.80;99.90;;;;;;4923609;28;20055;-94
2023/08/13 06:38:22;;;;;;;7.45;1.80;;;14.90;99.90;;;;;;4919590;28;20086;-94
2023/08/13 06:40:48;;;;;;;9.00;1.80;;;14.90;99.90;;;;;;4911931;28;20032;-94
2023/08/13 06:43:14;;;;;;;8.00;2.58;;;15.00;99.90;;;;;;4911692;28;20040;-92
2023/08/13 06:45:41;;;;;;;7.25;1.63;;;15.00;99.90;;;;;;4897893;29;20056;-95
2023/08/13 06:48:07;;;;;;;7.30;1.73;;;15.10;99.90;;;;;;4919515;28;20035;-94
2023/08/13 06:50:33;;;;;;;7.70;1.42;;;15.10;99.90;;;;;;4911644;28;20460;-94
2023/08/13 06:52:59;;;;;;;5.32;1.67;;;15.20;99.90;;;;;;4919898;28;20560;-95
2023/08/13 06:55:25;;;;;;;5.78;2.00;;;15.30;99.90;;;;;;4920481;28;20033;-95
2023/08/13 06:57:51;;;;;;;4.95;1.48;;;15.30;99.90;;;;;;4913493;28;20028;-95
2023/08/13 07:00:19;;;;;;;8.00;1.60;;;15.40;99.90;;;;;;4914386;28;20040;-93
2023/08/13 07:02:46;;;;;;;5.95;1.38;;;15.50;99.90;;;;;;4922167;28;20050;-92
2023/08/13 07:05:14;;;;;;;4.60;1.25;;;15.50;99.90;;;;;;4922166;28;20033;-93
2023/08/13 07:07:40;;;;;;;5.00;1.60;;;15.60;99.90;;;;;;4922530;28;20643;-94
2023/08/13 07:10:07;;;;;;;5.07;1.35;;;15.60;99.90;;;;;;4921494;28;20053;-94
2023/08/13 07:12:32;;;;;;;7.60;1.42;;;15.60;99.90;;;;;;4907769;28;20468;-95
2023/08/13 07:14:59;;;;;;;7.28;1.42;;;15.60;99.90;;;;;;4922751;28;20042;-93
2023/08/13 07:17:25;;;;;;;6.80;1.52;;;15.70;99.90;;;;;;4923790;28;20484;-94
2023/08/13 07:19:51;;;;;;;4.35;1.38;;;15.70;99.90;;;;;;4926162;28;20051;-92
2023/08/13 07:22:17;;;;;;;9.43;1.65;;;15.80;99.90;;;;;;4929625;28;20108;-94
2023/08/13 07:24:42;;;;;;;8.93;1.40;;;15.80;99.90;;;;;;4929101;28;20024;-93
2023/08/13 07:27:10;;;;;;;9.02;1.65;;;15.90;99.90;;;;;;4923998;28;20053;-95
2023/08/13 07:29:36;;;;;;;10.35;1.75;;;16.00;99.90;;;;;;4921804;28;20043;-94
2023/08/13 07:32:02;;;;;;;11.45;2.05;;;16.00;99.90;;;;;;4922177;28;20049;-94
2023/08/13 07:34:27;;;;;;;5.95;1.77;;;16.10;99.90;;;;;;4916155;29;20029;-93
2023/08/13 07:36:53;;;;;;;7.25;1.48;;;16.20;99.90;;;;;;4921901;28;20071;-95
2023/08/13 07:39:19;;;;;;;8.48;1.50;;;16.20;99.90;;;;;;4923191;28;20088;-95
2023/08/13 07:41:48;;;;;;;5.78;1.50;;;16.30;99.90;;;;;;4926138;28;20033;-95
2023/08/13 07:44:13;;;;;;;5.72;1.48;;;16.30;99.90;;;;;;4906389;29;20037;-95
2023/08/13 07:46:39;;;;;;;6.05;1.38;;;16.40;99.90;;;;;;4922302;28;20036;-95
2023/08/13 07:49:05;;;;;;;3.92;1.33;;;16.50;99.90;;;;;;4922256;28;20036;-93
2023/08/13 07:51:30;;;;;;;8.07;1.38;;;16.50;99.90;;;;;;4921485;28;20044;-93
2023/08/13 07:53:56;;;;;;;8.35;1.65;;;16.60;99.90;;;;;;4922862;28;20051;-94
2023/08/13 07:56:22;;;;;;;7.38;1.90;;;16.60;99.90;;;;;;4922543;28;20032;-93
2023/08/13 07:58:48;;;;;;;5.15;1.50;;;16.60;99.90;;;;;;4924781;28;20035;-94
2023/08/13 08:01:13;;;;;;;5.10;1.30;;;16.70;99.90;;;;;;4921375;28;20044;-95
2023/08/13 08:03:39;;;;;;;3.70;0.90;;;16.70;99.90;;;;;;4918641;28;20033;-94
2023/08/13 08:06:05;;;;;;;5.40;1.65;;;16.70;99.90;;;;;;4916807;28;20039;-95
2023/08/13 08:08:30;;;;;;;6.22;1.25;;;16.70;99.90;;;;;;4917017;28;20467;-94
2023/08/13 08:10:56;;;;;;;6.18;1.23;;;16.80;99.90;;;;;;4919754;28;20033;-94
2023/08/13 08:13:22;;;;;;;4.53;1.50;;;16.80;99.90;;;;;;4920109;28;20025;-92
2023/08/13 08:15:48;;;;;;;3.03;1.20;;;16.80;99.90;;;;;;4919242;28;20407;-93
2023/08/13 08:18:13;;;;;;;11.13;1.30;;;16.90;99.90;;;;;;4905257;29;20084;-94
2023/08/13 08:20:39;;;;;;;5.18;1.27;;;16.90;99.90;;;;;;4916247;28;20033;-94
2023/08/13 08:23:05;;;;;;;4.00;1.13;;;17.00;99.90;;;;;;4916116;28;20056;-94
2023/08/13 08:25:30;;;;;;;4.88;1.08;;;17.00;99.90;;;;;;4914857;28;20039;-93
2023/08/13 08:27:56;;;;;;;4.65;1.10;;;17.00;99.90;;;;;;4914550;28;20419;-95
2023/08/13 08:30:22;;;;;;;7.65;1.20;;;17.10;99.90;;;;;;4915376;28;20480;-95
2023/08/13 08:32:48;;;;;;;4.30;1.20;;;17.10;99.90;;;;;;4915213;28;20024;-94
2023/08/13 08:35:14;;;;;;;7.40;1.30;;;17.20;99.90;;;;;;4917360;28;20106;-95
2023/08/13 08:37:39;;;;;;;4.68;1.27;;;17.20;99.90;;;;;;4914613;28;20111;-93
2023/08/13 08:40:06;;;;;;;5.78;1.15;;;17.20;99.90;;;;;;4914178;28;20119;-95
2023/08/13 08:42:32;;;;;;;4.50;1.98;;;17.30;99.90;;;;;;4914064;28;20136;-94
2023/08/13 08:44:59;;;;;;;3.70;1.20;;;17.40;99.90;;;;;;4914597;28;20111;-94
2023/08/13 08:47:25;;;;;;;1.77;0.95;;;17.40;99.90;;;;;;4919566;28;20029;-94
2023/08/13 08:49:54;;;;;;;5.85;1.20;;;17.50;99.90;;;;;;4914514;28;20051;-94
2023/08/13 08:52:19;;;;;;;4.20;1.20;;;17.50;99.90;;;;;;4913744;28;20036;-95
2023/08/13 08:54:47;;;;;;;5.10;1.10;;;17.60;99.90;;;;;;4913825;28;20021;-95
2023/08/13 08:57:12;;;;;;;4.30;1.15;;;17.60;99.90;;;;;;4913401;29;20031;-94
2023/08/13 08:59:38;;;;;;;3.25;1.00;;;17.50;99.90;;;;;;4913632;28;20024;-93
2023/08/13 09:02:04;;;;;;;3.25;1.25;;;17.50;99.90;;;;;;4898587;29;20060;-94
2023/08/13 09:04:30;;;;;;;12.13;1.40;;;17.40;99.90;;;;;;4914138;28;20040;-93
2023/08/13 09:06:57;;;;;;;3.17;1.10;;;17.30;99.90;;;;;;4913293;28;20298;-93
2023/08/13 09:09:24;;;;;;;3.83;1.52;;;17.30;99.90;;;;;;4912916;28;20029;-95
2023/08/13 09:11:51;;;;;;;5.75;1.23;;;17.30;99.90;;;;;;4912427;28;20040;-93
2023/08/13 09:14:17;;;;;;;8.20;1.23;;;17.20;99.90;;;;;;4912761;28;20123;-94
2023/08/13 09:16:51;;;;;;;5.35;1.10;;;17.20;99.90;;;;;;4898034;29;20028;-93
2023/08/13 09:19:18;;;;;;;2.42;1.52;;;17.10;99.90;;;;;;4897582;29;20032;-96
2023/08/13 09:21:54;;;;;;;5.40;1.30;;;17.10;99.90;;;;;;4897426;29;20492;-94
2023/08/13 09:24:33;;;;;;;5.97;1.58;;;17.00;99.90;;;;;;4913052;28;20647;-94
2023/08/13 09:26:59;;;;;;;4.72;1.65;;;16.80;99.90;;;;;;4915701;28;20115;-93
2023/08/13 09:29:27;;;;;;;17.85;7.65;;;16.70;99.90;;;;;;4897922;29;20473;-94
2023/08/13 09:31:53;;;;;;;3.58;1.13;;;16.70;99.90;;;;;;4912131;28;20052;-94
2023/08/13 09:34:20;;;;;;;5.63;1.50;;;16.60;99.90;;;;;;4911969;28;20025;-94
2023/08/13 09:36:46;;;;;;;4.65;1.60;;;16.50;99.90;;;;;;4896683;29;20495;-94
2023/08/13 09:39:12;;;;;;;6.40;1.75;;;16.50;99.90;;;;;;4912828;28;20120;-92
2023/08/13 09:41:37;;;;;;;4.47;1.17;;;16.50;99.90;;;;;;4919730;28;20033;-93
2023/08/13 09:44:09;;;;;;;3.65;1.23;;;16.50;99.90;;;;;;4913216;28;20059;-94
2023/08/13 09:46:35;;;;;;;15.15;10.75;;;16.60;99.90;;;;;;4912747;28;20044;-94
2023/08/13 09:49:04;;;;;;;10.50;5.97;;;16.60;99.90;;;;;;4915577;28;20063;-94
2023/08/13 09:51:32;;;;;;;2.47;0.95;;;16.50;99.90;;;;;;4912109;28;20082;-95
2023/08/13 09:54:05;;;;;;;3.42;0.70;;;16.50;99.90;;;;;;4915377;28;20159;-94
2023/08/13 09:56:32;;;;;;;12.18;9.02;;;16.50;99.90;;;;;;4912032;28;20060;-95
2023/08/13 09:58:59;;;;;;;3.25;1.80;;;16.50;99.90;;;;;;4978889;28;20480;-94
2023/08/13 10:01:26;;;;;;;3.20;1.20;;;16.50;99.90;;;;;;4897547;29;20029;-94
2023/08/13 10:03:52;;;;;;;3.10;1.85;;;16.60;99.90;;;;;;4911904;28;20506;-94
2023/08/13 10:06:20;;;;;;;3.63;1.15;;;16.60;99.90;;;;;;4911896;28;20029;-94
2023/08/13 10:08:46;;;;;;;3.28;1.35;;;16.70;99.90;;;;;;4911516;28;20036;-95
2023/08/13 10:11:13;;;;;;;4.10;1.23;;;16.70;99.90;;;;;;4912662;28;20112;-93
2023/08/13 10:13:39;;;;;;;2.53;1.13;;;16.80;99.90;;;;;;4913605;28;20040;-96
2023/08/13 10:16:05;;;;;;;2.58;1.13;;;16.90;99.90;;;;;;4911382;28;20495;-94
2023/08/13 10:18:33;;;;;;;2.33;1.00;;;16.90;99.90;;;;;;4911948;28;20063;-93
2023/08/13 10:20:59;;;;;;;4.43;1.17;;;17.00;99.90;;;;;;4912681;28;20025;-94
2023/08/13 10:23:26;;;;;;;5.72;1.98;;;17.30;99.90;;;;;;4914179;28;20136;-94
2023/08/13 10:25:53;;;;;;;6.30;1.30;;;17.50;99.90;;;;;;4914495;28;20035;-95
2023/08/13 10:28:27;;;;;;;4.95;1.08;;;17.70;99.90;;;;;;4896889;29;20191;-92
2023/08/13 10:31:21;;;;;;;4.97;1.70;;;17.90;99.90;;;;;;4913127;28;20025;-94
2023/08/13 10:33:46;;;;;;;2.83;1.00;;;18.10;99.90;;;;;;4911477;28;20041;-93
2023/08/13 10:36:12;;;;;;;1.15;1.00;;;18.30;99.90;;;;;;4913749;28;20035;-93
2023/08/13 10:38:38;;;;;;;4.03;1.55;;;18.40;99.90;;;;;;4912325;28;20032;-94
2023/08/13 10:41:06;;;;;;;2.25;0.95;;;18.40;99.90;;;;;;4912364;28;20039;-92
2023/08/13 10:43:33;;;;;;;2.58;1.00;;;18.50;99.90;;;;;;4897292;29;20444;-93
2023/08/13 10:46:02;;;;;;;1.67;0.60;;;18.60;99.90;;;;;;4916532;28;20036;-93
2023/08/13 10:48:30;;;;;;;1.55;0.52;;;18.60;99.90;;;;;;4914399;28;20115;-94
2023/08/13 10:50:57;;;;;;;1.70;0.80;;;18.50;99.90;;;;;;4916186;28;20112;-94
2023/08/13 10:53:26;;;;;;;3.90;1.05;;;18.50;99.90;;;;;;4908434;29;20488;-92
2023/08/13 10:55:52;;;;;;;0.82;0.60;;;18.50;99.90;;;;;;4909995;29;20056;-92
2023/08/13 10:58:39;;;;;;;1.83;0.68;;;18.50;99.90;;;;;;4920112;28;20029;-92
2023/08/13 11:01:11;;;;;;;2.90;0.80;;;18.70;99.90;;;;;;4903092;29;20484;-93
2023/08/13 11:03:44;;;;;;;0.52;0.52;;;18.70;99.90;;;;;;4915022;29;20040;-92
2023/08/13 11:06:10;;;;;;;1.27;0.75;;;18.60;99.90;;;;;;4919200;28;20028;-92
2023/08/13 11:08:38;;;;;;;1.75;0.80;;;18.50;99.90;;;;;;4928709;28;20032;-94
2023/08/13 11:11:06;;;;;;;0.70;0.70;;;18.40;99.90;;;;;;4913237;29;20016;-95
2023/08/13 11:13:32;;;;;;;1.95;0.80;;;18.40;99.90;;;;;;4921640;28;20083;-94
2023/08/13 11:15:57;;;;;;;1.45;0.70;;;18.30;99.90;;;;;;4923325;28;20322;-94
2023/08/13 11:18:23;;;;;;;1.73;0.80;;;18.20;99.90;;;;;;4907164;28;20020;-93
2023/08/13 11:20:50;;;;;;;3.30;0.47;;;18.20;99.90;;;;;;4925875;28;20060;-93
2023/08/13 11:23:17;;;;;;;1.00;0.73;;;18.10;99.90;;;;;;4908650;29;20075;-93
2023/08/13 11:25:46;;;;;;;3.92;0.70;;;18.00;99.90;;;;;;4916136;28;20029;-95
2023/08/13 11:28:21;;;;;;;1.88;0.50;;;17.90;99.90;;;;;;4903558;29;20088;-93
2023/08/13 11:30:50;;;;;;;0.95;0.47;;;17.80;99.90;;;;;;4923097;28;20123;-94
2023/08/13 11:33:16;;;;;;;0.75;0.52;;;17.80;99.90;;;;;;4922347;28;20238;-94
2023/08/13 11:35:42;;;;;;;1.50;0.43;;;17.80;99.90;;;;;;4996840;28;20032;-91
2023/08/13 11:38:08;;;;;;;1.33;0.40;;;17.70;99.90;;;;;;4932882;28;20033;-92
2023/08/13 11:40:34;;;;;;;0.73;0.40;;;17.80;99.90;;;;;;4914595;29;20048;-95
2023/08/13 11:43:02;;;;;;;1.17;0.45;;;17.90;99.90;;;;;;4927892;28;20040;-96
2023/08/13 11:45:31;;;;;;;0.57;0.45;;;18.10;99.90;;;;;;4933292;28;20044;-91
2023/08/13 11:48:14;;;;;;;1.75;0.50;;;18.30;99.90;;;;;;4936467;28;20051;-92
2023/08/13 11:50:41;;;;;;;0.60;0.30;;;18.60;99.90;;;;;;4910122;29;20096;-94
2023/08/13 11:53:15;;;;;;;0.98;0.45;;;18.80;99.90;;;;;;4911851;29;20028;-94
2023/08/13 11:55:46;;;;;;;0.88;0.43;;;19.20;99.90;;;;;;4922838;28;20028;-94
2023/08/13 11:58:17;;;;;;;0.30;0.30;;;19.60;99.90;;;;;;4920506;29;20032;-95
2023/08/13 12:00:42;;;;;;;1.50;0.50;;;20.00;99.90;;;;;;4919429;28;20052;-92
2023/08/13 12:03:08;;;;;;;2.95;0.60;;;20.40;99.90;;;;;;4919650;28;20091;-93
2023/08/13 12:05:34;;;;;;;2.85;0.70;;;20.70;99.90;;;;;;4906000;28;20551;-93
2023/08/13 12:08:04;;;;;;;2.15;0.40;;;21.00;99.90;;;;;;4919985;28;20029;-93
2023/08/13 12:10:31;;;;;;;2.93;0.53;;;21.20;99.90;;;;;;4987110;28;20044;-94
2023/08/13 12:12:59;;;;;;;2.42;0.45;;;21.40;97.60;;;;;;4926049;28;20397;-94
2023/08/13 12:15:25;;;;;;;3.20;0.90;;;21.50;96.80;;;;;;4920400;28;20036;-94
2023/08/13 12:17:52;;;;;;;3.13;0.60;;;21.60;95.90;;;;;;4921934;28;20116;-93
2023/08/13 12:20:18;;;;;;;3.10;0.77;;;21.50;94.70;;;;;;4918905;28;20439;-92
2023/08/13 12:22:44;;;;;;;1.65;0.60;;;21.60;94.90;;;;;;4914788;28;20037;-96
2023/08/13 12:25:10;;;;;;;2.10;0.63;;;21.50;94.20;;;;;;4917386;28;20111;-94
2023/08/13 12:27:35;;;;;;;2.88;1.25;;;21.50;94.40;;;;;;4917914;28;20052;-94
2023/08/13 12:30:04;;;;;;;3.25;0.88;;;21.50;94.30;;;;;;4905340;28;20052;-95
2023/08/13 12:32:30;;;;;;;4.15;0.63;;;21.60;94.10;;;;;;4919924;28;20033;-94
2023/08/13 12:34:56;;;;;;;1.45;0.57;;;21.60;93.60;;;;;;4924298;28;20702;-93
2023/08/13 12:37:22;;;;;;;3.47;0.57;;;21.60;93.10;;;;;;4928223;28;20025;-93
2023/08/13 12:39:49;;;;;;;1.85;0.60;;;21.50;91.90;;;;;;4920547;28;20043;-95
2023/08/13 12:42:14;;;;;;;1.77;0.35;;;21.30;90.60;;;;;;4898898;29;20112;-94
2023/08/13 12:44:40;;;;;;;2.28;0.70;;;21.20;90.80;;;;;;4913381;28;20067;-93